sensor_id;sensor_type;location;lat;lon;timestamp;P1;durP1;ratioP1;P2;durP2;ratioP2
4742;SDS011;24293;48.154;7.748;2024-03-17T00:01:46;8.63;;;4.63;;
4742;SDS011;24293;48.154;7.748;2024-03-17T00:04:12;9.40;;;4.40;;
4742;SDS011;24293;48.154;7.748;2024-03-17T00:06:40;9.60;;;4.60;;
4742;SDS011;24293;48.154;7.748;2024-03-17T00:09:05;7.23;;;4.03;;
4742;SDS011;24293;48.154;7.748;2024-03-17T00:11:34;8.17;;;4.20;;
4742;SDS011;24293;48.154;7.748;2024-03-17T00:14:00;9.60;;;4.83;;
4742;SDS011;24293;48.154;7.748;2024-03-17T00:16:27;11.27;;;4.97;;
4742;SDS011;24293;48.154;7.748;2024-03-17T00:18:52;9.70;;;4.23;;
4742;SDS011;24293;48.154;7.748;2024-03-17T00:21:19;8.50;;;4.57;;
4742;SDS011;24293;48.154;7.748;2024-03-17T00:23:46;8.90;;;4.63;;
4742;SDS011;24293;48.154;7.748;2024-03-17T00:26:14;9.83;;;5.00;;
4742;SDS011;24293;48.154;7.748;2024-03-17T00:28:39;10.23;;;4.70;;
4742;SDS011;24293;48.154;7.748;2024-03-17T00:31:07;8.00;;;4.40;;
4742;SDS011;24293;48.154;7.748;2024-03-17T00:33:32;7.90;;;4.80;;
4742;SDS011;24293;48.154;7.748;2024-03-17T00:35:59;7.73;;;4.47;;
4742;SDS011;24293;48.154;7.748;2024-03-17T00:38:24;12.07;;;5.07;;
4742;SDS011;24293;48.154;7.748;2024-03-17T00:40:52;8.57;;;4.43;;
4742;SDS011;24293;48.154;7.748;2024-03-17T00:43:18;9.07;;;5.17;;
4742;SDS011;24293;48.154;7.748;2024-03-17T00:45:50;12.83;;;5.87;;
4742;SDS011;24293;48.154;7.748;2024-03-17T00:48:16;11.00;;;4.57;;
4742;SDS011;24293;48.154;7.748;2024-03-17T00:50:42;9.57;;;5.10;;
4742;SDS011;24293;48.154;7.748;2024-03-17T00:53:09;8.87;;;5.03;;
4742;SDS011;24293;48.154;7.748;2024-03-17T00:55:36;11.50;;;5.20;;
4742;SDS011;24293;48.154;7.748;2024-03-17T00:58:03;8.03;;;4.43;;
4742;SDS011;24293;48.154;7.748;2024-03-17T01:00:30;8.03;;;3.90;;
4742;SDS011;24293;48.154;7.748;2024-03-17T01:02:58;8.60;;;4.20;;
4742;SDS011;24293;48.154;7.748;2024-03-17T01:05:24;6.90;;;4.43;;
4742;SDS011;24293;48.154;7.748;2024-03-17T01:07:50;13.03;;;4.40;;
4742;SDS011;24293;48.154;7.748;2024-03-17T01:10:16;7.30;;;3.70;;
4742;SDS011;24293;48.154;7.748;2024-03-17T01:12:42;9.10;;;4.20;;
4742;SDS011;24293;48.154;7.748;2024-03-17T01:15:10;8.90;;;3.93;;
4742;SDS011;24293;48.154;7.748;2024-03-17T01:17:36;7.23;;;3.87;;
4742;SDS011;24293;48.154;7.748;2024-03-17T01:20:03;7.97;;;3.67;;
4742;SDS011;24293;48.154;7.748;2024-03-17T01:22:28;10.33;;;3.50;;
4742;SDS011;24293;48.154;7.748;2024-03-17T01:24:55;9.70;;;3.90;;
4742;SDS011;24293;48.154;7.748;2024-03-17T01:27:20;7.10;;;3.90;;
4742;SDS011;24293;48.154;7.748;2024-03-17T01:29:46;7.63;;;3.40;;
4742;SDS011;24293;48.154;7.748;2024-03-17T01:32:13;10.17;;;3.83;;
4742;SDS011;24293;48.154;7.748;2024-03-17T01:34:40;9.60;;;3.93;;
4742;SDS011;24293;48.154;7.748;2024-03-17T01:37:05;12.60;;;3.80;;
4742;SDS011;24293;48.154;7.748;2024-03-17T01:39:32;14.87;;;4.70;;
4742;SDS011;24293;48.154;7.748;2024-03-17T01:41:58;13.17;;;4.40;;
4742;SDS011;24293;48.154;7.748;2024-03-17T01:44:25;12.00;;;3.90;;
4742;SDS011;24293;48.154;7.748;2024-03-17T01:46:51;10.10;;;3.97;;
4742;SDS011;24293;48.154;7.748;2024-03-17T01:49:19;12.13;;;5.10;;
4742;SDS011;24293;48.154;7.748;2024-03-17T01:51:45;6.83;;;3.67;;
4742;SDS011;24293;48.154;7.748;2024-03-17T01:54:12;6.00;;;3.33;;
4742;SDS011;24293;48.154;7.748;2024-03-17T01:56:38;11.93;;;3.50;;
4742;SDS011;24293;48.154;7.748;2024-03-17T01:59:05;11.40;;;4.30;;
4742;SDS011;24293;48.154;7.748;2024-03-17T02:01:31;6.43;;;3.63;;
4742;SDS011;24293;48.154;7.748;2024-03-17T02:03:58;13.10;;;4.67;;
4742;SDS011;24293;48.154;7.748;2024-03-17T02:06:25;8.07;;;4.50;;
4742;SDS011;24293;48.154;7.748;2024-03-17T02:08:52;11.03;;;5.70;;
4742;SDS011;24293;48.154;7.748;2024-03-17T02:11:24;9.00;;;4.63;;
4742;SDS011;24293;48.154;7.748;2024-03-17T02:13:51;11.43;;;4.43;;
4742;SDS011;24293;48.154;7.748;2024-03-17T02:16:17;12.10;;;4.97;;
4742;SDS011;24293;48.154;7.748;2024-03-17T02:18:44;10.23;;;4.67;;
4742;SDS011;24293;48.154;7.748;2024-03-17T02:21:10;12.80;;;5.17;;
4742;SDS011;24293;48.154;7.748;2024-03-17T02:23:38;8.43;;;4.97;;
4742;SDS011;24293;48.154;7.748;2024-03-17T02:26:03;12.90;;;5.77;;
4742;SDS011;24293;48.154;7.748;2024-03-17T02:28:37;7.93;;;5.03;;
4742;SDS011;24293;48.154;7.748;2024-03-17T02:31:03;10.90;;;5.30;;
4742;SDS011;24293;48.154;7.748;2024-03-17T02:33:30;10.03;;;5.07;;
4742;SDS011;24293;48.154;7.748;2024-03-17T02:35:55;7.87;;;4.10;;
4742;SDS011;24293;48.154;7.748;2024-03-17T02:38:22;8.33;;;3.87;;
4742;SDS011;24293;48.154;7.748;2024-03-17T02:41:03;10.13;;;4.90;;
4742;SDS011;24293;48.154;7.748;2024-03-17T02:43:30;11.87;;;4.17;;
4742;SDS011;24293;48.154;7.748;2024-03-17T02:45:56;7.60;;;3.80;;
4742;SDS011;24293;48.154;7.748;2024-03-17T02:48:23;7.97;;;4.23;;
4742;SDS011;24293;48.154;7.748;2024-03-17T02:50:50;10.63;;;4.47;;
4742;SDS011;24293;48.154;7.748;2024-03-17T02:53:17;9.97;;;5.00;;
4742;SDS011;24293;48.154;7.748;2024-03-17T02:55:44;11.60;;;4.67;;
4742;SDS011;24293;48.154;7.748;2024-03-17T02:58:12;7.20;;;3.70;;
4742;SDS011;24293;48.154;7.748;2024-03-17T03:00:38;9.37;;;4.50;;
4742;SDS011;24293;48.154;7.748;2024-03-17T03:03:05;9.63;;;4.23;;
4742;SDS011;24293;48.154;7.748;2024-03-17T03:05:32;8.57;;;4.33;;
4742;SDS011;24293;48.154;7.748;2024-03-17T03:07:58;13.63;;;4.40;;
4742;SDS011;24293;48.154;7.748;2024-03-17T03:10:24;13.67;;;4.53;;
4742;SDS011;24293;48.154;7.748;2024-03-17T03:12:51;12.00;;;4.50;;
4742;SDS011;24293;48.154;7.748;2024-03-17T03:15:19;9.83;;;4.50;;
4742;SDS011;24293;48.154;7.748;2024-03-17T03:17:46;11.30;;;4.67;;
4742;SDS011;24293;48.154;7.748;2024-03-17T03:20:11;11.73;;;4.13;;
4742;SDS011;24293;48.154;7.748;2024-03-17T03:22:39;9.67;;;4.87;;
4742;SDS011;24293;48.154;7.748;2024-03-17T03:25:06;11.30;;;4.10;;
4742;SDS011;24293;48.154;7.748;2024-03-17T03:27:32;13.03;;;4.57;;
4742;SDS011;24293;48.154;7.748;2024-03-17T03:29:59;11.70;;;5.00;;
4742;SDS011;24293;48.154;7.748;2024-03-17T03:32:27;12.77;;;4.83;;
4742;SDS011;24293;48.154;7.748;2024-03-17T03:34:53;15.10;;;5.33;;
4742;SDS011;24293;48.154;7.748;2024-03-17T03:37:20;9.77;;;5.43;;
4742;SDS011;24293;48.154;7.748;2024-03-17T03:39:46;12.77;;;4.73;;
4742;SDS011;24293;48.154;7.748;2024-03-17T03:42:14;12.70;;;5.90;;
4742;SDS011;24293;48.154;7.748;2024-03-17T03:44:40;6.70;;;4.33;;
4742;SDS011;24293;48.154;7.748;2024-03-17T03:47:08;9.60;;;4.60;;
4742;SDS011;24293;48.154;7.748;2024-03-17T03:49:36;12.70;;;5.27;;
4742;SDS011;24293;48.154;7.748;2024-03-17T03:52:03;12.20;;;4.70;;
4742;SDS011;24293;48.154;7.748;2024-03-17T03:54:30;9.53;;;5.30;;
4742;SDS011;24293;48.154;7.748;2024-03-17T03:56:56;15.47;;;4.73;;
4742;SDS011;24293;48.154;7.748;2024-03-17T03:59:23;10.27;;;5.33;;
4742;SDS011;24293;48.154;7.748;2024-03-17T04:01:50;11.70;;;4.97;;
4742;SDS011;24293;48.154;7.748;2024-03-17T04:04:17;14.47;;;5.17;;
4742;SDS011;24293;48.154;7.748;2024-03-17T04:06:45;7.93;;;4.67;;
4742;SDS011;24293;48.154;7.748;2024-03-17T04:09:12;11.13;;;5.97;;
4742;SDS011;24293;48.154;7.748;2024-03-17T04:11:38;15.53;;;5.80;;
4742;SDS011;24293;48.154;7.748;2024-03-17T04:14:04;14.10;;;5.13;;
4742;SDS011;24293;48.154;7.748;2024-03-17T04:16:31;16.30;;;4.90;;
4742;SDS011;24293;48.154;7.748;2024-03-17T04:18:57;15.00;;;5.17;;
4742;SDS011;24293;48.154;7.748;2024-03-17T04:21:24;10.60;;;4.97;;
4742;SDS011;24293;48.154;7.748;2024-03-17T04:23:52;7.13;;;5.00;;
4742;SDS011;24293;48.154;7.748;2024-03-17T04:26:18;10.60;;;4.90;;
4742;SDS011;24293;48.154;7.748;2024-03-17T04:28:45;12.37;;;5.03;;
4742;SDS011;24293;48.154;7.748;2024-03-17T04:31:11;8.30;;;5.10;;
4742;SDS011;24293;48.154;7.748;2024-03-17T04:33:38;9.70;;;4.67;;
4742;SDS011;24293;48.154;7.748;2024-03-17T04:36:05;10.07;;;4.90;;
4742;SDS011;24293;48.154;7.748;2024-03-17T04:38:31;9.93;;;4.80;;
4742;SDS011;24293;48.154;7.748;2024-03-17T04:40:59;10.20;;;4.47;;
4742;SDS011;24293;48.154;7.748;2024-03-17T04:43:30;11.00;;;4.63;;
4742;SDS011;24293;48.154;7.748;2024-03-17T04:46:01;7.80;;;4.53;;
4742;SDS011;24293;48.154;7.748;2024-03-17T04:48:29;11.50;;;4.07;;
4742;SDS011;24293;48.154;7.748;2024-03-17T04:50:55;10.30;;;4.47;;
4742;SDS011;24293;48.154;7.748;2024-03-17T04:53:22;9.83;;;4.13;;
4742;SDS011;24293;48.154;7.748;2024-03-17T04:55:48;7.77;;;4.50;;
4742;SDS011;24293;48.154;7.748;2024-03-17T04:58:24;9.70;;;4.40;;
4742;SDS011;24293;48.154;7.748;2024-03-17T05:00:51;8.13;;;4.70;;
4742;SDS011;24293;48.154;7.748;2024-03-17T05:03:17;8.60;;;4.60;;
4742;SDS011;24293;48.154;7.748;2024-03-17T05:05:44;10.70;;;5.03;;
4742;SDS011;24293;48.154;7.748;2024-03-17T05:08:10;11.20;;;4.80;;
4742;SDS011;24293;48.154;7.748;2024-03-17T05:10:37;10.63;;;4.43;;
4742;SDS011;24293;48.154;7.748;2024-03-17T05:13:03;11.00;;;5.00;;
4742;SDS011;24293;48.154;7.748;2024-03-17T05:15:31;11.83;;;5.10;;
4742;SDS011;24293;48.154;7.748;2024-03-17T05:17:57;29.17;;;13.07;;
4742;SDS011;24293;48.154;7.748;2024-03-17T05:20:24;14.03;;;5.30;;
4742;SDS011;24293;48.154;7.748;2024-03-17T05:22:50;13.00;;;5.27;;
4742;SDS011;24293;48.154;7.748;2024-03-17T05:25:17;9.27;;;5.47;;
4742;SDS011;24293;48.154;7.748;2024-03-17T05:27:43;21.80;;;10.97;;
4742;SDS011;24293;48.154;7.748;2024-03-17T05:30:10;18.70;;;9.00;;
4742;SDS011;24293;48.154;7.748;2024-03-17T05:32:38;15.90;;;6.63;;
4742;SDS011;24293;48.154;7.748;2024-03-17T05:35:05;12.47;;;5.80;;
4742;SDS011;24293;48.154;7.748;2024-03-17T05:37:31;7.93;;;4.90;;
4742;SDS011;24293;48.154;7.748;2024-03-17T05:39:58;12.80;;;5.93;;
4742;SDS011;24293;48.154;7.748;2024-03-17T05:42:25;18.00;;;7.27;;
4742;SDS011;24293;48.154;7.748;2024-03-17T05:44:51;14.47;;;6.70;;
4742;SDS011;24293;48.154;7.748;2024-03-17T05:47:18;14.77;;;6.53;;
4742;SDS011;24293;48.154;7.748;2024-03-17T05:49:46;18.47;;;6.40;;
4742;SDS011;24293;48.154;7.748;2024-03-17T05:52:12;15.33;;;6.83;;
4742;SDS011;24293;48.154;7.748;2024-03-17T05:54:39;17.23;;;6.77;;
4742;SDS011;24293;48.154;7.748;2024-03-17T05:57:05;17.57;;;7.70;;
4742;SDS011;24293;48.154;7.748;2024-03-17T05:59:34;14.87;;;6.10;;
4742;SDS011;24293;48.154;7.748;2024-03-17T06:02:01;16.33;;;6.43;;
4742;SDS011;24293;48.154;7.748;2024-03-17T06:04:27;11.90;;;6.00;;
4742;SDS011;24293;48.154;7.748;2024-03-17T06:06:55;16.73;;;6.67;;
4742;SDS011;24293;48.154;7.748;2024-03-17T06:09:22;12.73;;;6.23;;
4742;SDS011;24293;48.154;7.748;2024-03-17T06:11:48;11.10;;;5.70;;
4742;SDS011;24293;48.154;7.748;2024-03-17T06:14:15;20.40;;;6.40;;
4742;SDS011;24293;48.154;7.748;2024-03-17T06:16:42;11.90;;;5.43;;
4742;SDS011;24293;48.154;7.748;2024-03-17T06:19:09;9.60;;;5.37;;
4742;SDS011;24293;48.154;7.748;2024-03-17T06:21:35;10.83;;;5.00;;
4742;SDS011;24293;48.154;7.748;2024-03-17T06:24:03;13.30;;;5.83;;
4742;SDS011;24293;48.154;7.748;2024-03-17T06:26:31;10.77;;;5.90;;
4742;SDS011;24293;48.154;7.748;2024-03-17T06:28:59;9.50;;;4.70;;
4742;SDS011;24293;48.154;7.748;2024-03-17T06:31:25;8.43;;;4.93;;
4742;SDS011;24293;48.154;7.748;2024-03-17T06:33:52;10.37;;;5.37;;
4742;SDS011;24293;48.154;7.748;2024-03-17T06:36:18;9.53;;;4.60;;
4742;SDS011;24293;48.154;7.748;2024-03-17T06:38:45;9.07;;;5.10;;
4742;SDS011;24293;48.154;7.748;2024-03-17T06:41:13;7.70;;;4.43;;
4742;SDS011;24293;48.154;7.748;2024-03-17T06:43:40;8.60;;;5.00;;
4742;SDS011;24293;48.154;7.748;2024-03-17T06:46:08;13.00;;;5.90;;
4742;SDS011;24293;48.154;7.748;2024-03-17T06:48:35;8.70;;;4.67;;
4742;SDS011;24293;48.154;7.748;2024-03-17T06:51:01;8.53;;;5.07;;
4742;SDS011;24293;48.154;7.748;2024-03-17T06:53:28;8.73;;;4.30;;
4742;SDS011;24293;48.154;7.748;2024-03-17T06:55:56;11.00;;;4.40;;
4742;SDS011;24293;48.154;7.748;2024-03-17T06:58:24;7.43;;;4.50;;
4742;SDS011;24293;48.154;7.748;2024-03-17T07:00:54;11.10;;;4.47;;
4742;SDS011;24293;48.154;7.748;2024-03-17T07:03:22;8.93;;;5.10;;
4742;SDS011;24293;48.154;7.748;2024-03-17T07:05:52;13.10;;;5.20;;
4742;SDS011;24293;48.154;7.748;2024-03-17T07:08:19;9.03;;;4.23;;
4742;SDS011;24293;48.154;7.748;2024-03-17T07:10:54;9.13;;;4.23;;
4742;SDS011;24293;48.154;7.748;2024-03-17T07:13:21;9.67;;;3.67;;
4742;SDS011;24293;48.154;7.748;2024-03-17T07:15:49;8.90;;;4.90;;
4742;SDS011;24293;48.154;7.748;2024-03-17T07:18:15;6.30;;;4.03;;
4742;SDS011;24293;48.154;7.748;2024-03-17T07:20:42;10.20;;;4.77;;
4742;SDS011;24293;48.154;7.748;2024-03-17T07:23:09;12.20;;;4.80;;
4742;SDS011;24293;48.154;7.748;2024-03-17T07:25:36;13.00;;;5.33;;
4742;SDS011;24293;48.154;7.748;2024-03-17T07:28:02;7.37;;;4.90;;
4742;SDS011;24293;48.154;7.748;2024-03-17T07:30:29;13.40;;;5.80;;
4742;SDS011;24293;48.154;7.748;2024-03-17T07:32:57;13.10;;;5.50;;
4742;SDS011;24293;48.154;7.748;2024-03-17T07:35:23;9.57;;;4.80;;
4742;SDS011;24293;48.154;7.748;2024-03-17T07:37:50;10.80;;;5.67;;
4742;SDS011;24293;48.154;7.748;2024-03-17T07:40:16;13.90;;;6.23;;
4742;SDS011;24293;48.154;7.748;2024-03-17T07:42:44;11.73;;;6.03;;
4742;SDS011;24293;48.154;7.748;2024-03-17T07:45:10;12.13;;;6.20;;
4742;SDS011;24293;48.154;7.748;2024-03-17T07:47:36;13.53;;;5.80;;
4742;SDS011;24293;48.154;7.748;2024-03-17T07:50:05;17.27;;;8.00;;
4742;SDS011;24293;48.154;7.748;2024-03-17T07:52:31;13.43;;;6.47;;
4742;SDS011;24293;48.154;7.748;2024-03-17T07:54:58;12.90;;;6.83;;
4742;SDS011;24293;48.154;7.748;2024-03-17T07:57:24;14.73;;;6.63;;
4742;SDS011;24293;48.154;7.748;2024-03-17T07:59:52;14.33;;;7.40;;
4742;SDS011;24293;48.154;7.748;2024-03-17T08:02:18;11.13;;;6.20;;
4742;SDS011;24293;48.154;7.748;2024-03-17T08:04:44;12.47;;;6.33;;
4742;SDS011;24293;48.154;7.748;2024-03-17T08:07:12;14.03;;;7.67;;
4742;SDS011;24293;48.154;7.748;2024-03-17T08:09:39;14.13;;;7.80;;
4742;SDS011;24293;48.154;7.748;2024-03-17T08:12:05;12.53;;;6.20;;
4742;SDS011;24293;48.154;7.748;2024-03-17T08:14:32;13.93;;;7.10;;
4742;SDS011;24293;48.154;7.748;2024-03-17T08:16:58;9.57;;;6.80;;
4742;SDS011;24293;48.154;7.748;2024-03-17T08:19:25;12.30;;;6.87;;
4742;SDS011;24293;48.154;7.748;2024-03-17T08:21:51;13.30;;;7.00;;
4742;SDS011;24293;48.154;7.748;2024-03-17T08:24:19;13.17;;;8.53;;
4742;SDS011;24293;48.154;7.748;2024-03-17T08:26:46;16.00;;;8.00;;
4742;SDS011;24293;48.154;7.748;2024-03-17T08:29:12;17.20;;;8.80;;
4742;SDS011;24293;48.154;7.748;2024-03-17T08:31:39;12.70;;;7.67;;
4742;SDS011;24293;48.154;7.748;2024-03-17T08:34:05;14.43;;;9.20;;
4742;SDS011;24293;48.154;7.748;2024-03-17T08:36:31;16.70;;;9.43;;
4742;SDS011;24293;48.154;7.748;2024-03-17T08:38:58;15.43;;;7.53;;
4742;SDS011;24293;48.154;7.748;2024-03-17T08:41:26;12.60;;;7.60;;
4742;SDS011;24293;48.154;7.748;2024-03-17T08:43:52;10.37;;;7.37;;
4742;SDS011;24293;48.154;7.748;2024-03-17T08:46:19;17.00;;;8.80;;
4742;SDS011;24293;48.154;7.748;2024-03-17T08:48:45;18.20;;;7.87;;
4742;SDS011;24293;48.154;7.748;2024-03-17T08:51:12;14.47;;;8.37;;
4742;SDS011;24293;48.154;7.748;2024-03-17T08:53:39;17.37;;;7.47;;
4742;SDS011;24293;48.154;7.748;2024-03-17T08:56:07;12.03;;;7.70;;
4742;SDS011;24293;48.154;7.748;2024-03-17T08:58:35;18.77;;;8.93;;
4742;SDS011;24293;48.154;7.748;2024-03-17T09:01:04;18.07;;;11.23;;
4742;SDS011;24293;48.154;7.748;2024-03-17T09:03:32;11.60;;;8.17;;
4742;SDS011;24293;48.154;7.748;2024-03-17T09:05:58;14.90;;;8.50;;
4742;SDS011;24293;48.154;7.748;2024-03-17T09:08:25;14.67;;;8.10;;
4742;SDS011;24293;48.154;7.748;2024-03-17T09:10:53;12.70;;;7.97;;
4742;SDS011;24293;48.154;7.748;2024-03-17T09:13:21;12.57;;;8.33;;
4742;SDS011;24293;48.154;7.748;2024-03-17T09:15:53;23.17;;;10.70;;
4742;SDS011;24293;48.154;7.748;2024-03-17T09:18:21;17.13;;;9.40;;
4742;SDS011;24293;48.154;7.748;2024-03-17T09:20:55;16.97;;;10.90;;
4742;SDS011;24293;48.154;7.748;2024-03-17T09:23:21;15.30;;;9.20;;
4742;SDS011;24293;48.154;7.748;2024-03-17T09:25:54;16.93;;;10.43;;
4742;SDS011;24293;48.154;7.748;2024-03-17T09:28:20;16.20;;;9.57;;
4742;SDS011;24293;48.154;7.748;2024-03-17T09:30:47;16.30;;;10.53;;
4742;SDS011;24293;48.154;7.748;2024-03-17T09:33:16;17.97;;;10.10;;
4742;SDS011;24293;48.154;7.748;2024-03-17T09:35:42;17.43;;;10.60;;
4742;SDS011;24293;48.154;7.748;2024-03-17T09:38:09;23.63;;;10.70;;
4742;SDS011;24293;48.154;7.748;2024-03-17T09:40:35;15.80;;;10.50;;
4742;SDS011;24293;48.154;7.748;2024-03-17T09:43:01;18.33;;;9.83;;
4742;SDS011;24293;48.154;7.748;2024-03-17T09:45:28;15.93;;;9.77;;
4742;SDS011;24293;48.154;7.748;2024-03-17T09:47:58;18.50;;;10.80;;
4742;SDS011;24293;48.154;7.748;2024-03-17T09:50:26;20.60;;;10.10;;
4742;SDS011;24293;48.154;7.748;2024-03-17T09:52:53;17.60;;;11.00;;
4742;SDS011;24293;48.154;7.748;2024-03-17T09:55:20;17.53;;;10.63;;
4742;SDS011;24293;48.154;7.748;2024-03-17T09:57:47;17.00;;;10.60;;
4742;SDS011;24293;48.154;7.748;2024-03-17T10:00:14;17.13;;;10.10;;
4742;SDS011;24293;48.154;7.748;2024-03-17T10:02:41;18.07;;;10.13;;
4742;SDS011;24293;48.154;7.748;2024-03-17T10:05:16;18.90;;;11.83;;
4742;SDS011;24293;48.154;7.748;2024-03-17T10:07:45;17.00;;;10.70;;
4742;SDS011;24293;48.154;7.748;2024-03-17T10:10:12;18.50;;;10.40;;
4742;SDS011;24293;48.154;7.748;2024-03-17T10:12:38;17.67;;;10.80;;
4742;SDS011;24293;48.154;7.748;2024-03-17T10:15:07;23.83;;;14.97;;
4742;SDS011;24293;48.154;7.748;2024-03-17T10:17:35;17.97;;;10.77;;
4742;SDS011;24293;48.154;7.748;2024-03-17T10:20:12;18.37;;;10.17;;
4742;SDS011;24293;48.154;7.748;2024-03-17T10:22:41;20.70;;;11.00;;
4742;SDS011;24293;48.154;7.748;2024-03-17T10:25:08;16.53;;;11.07;;
4742;SDS011;24293;48.154;7.748;2024-03-17T10:27:42;20.33;;;11.60;;
4742;SDS011;24293;48.154;7.748;2024-03-17T10:30:09;21.70;;;11.83;;
4742;SDS011;24293;48.154;7.748;2024-03-17T10:32:43;21.10;;;11.60;;
4742;SDS011;24293;48.154;7.748;2024-03-17T10:35:22;28.80;;;13.00;;
4742;SDS011;24293;48.154;7.748;2024-03-17T10:37:53;22.00;;;13.10;;
4742;SDS011;24293;48.154;7.748;2024-03-17T10:40:21;32.43;;;13.03;;
4742;SDS011;24293;48.154;7.748;2024-03-17T10:42:47;22.13;;;11.27;;
4742;SDS011;24293;48.154;7.748;2024-03-17T10:45:14;22.93;;;11.77;;
4742;SDS011;24293;48.154;7.748;2024-03-17T10:47:41;19.00;;;10.47;;
4742;SDS011;24293;48.154;7.748;2024-03-17T10:50:10;20.37;;;10.93;;
4742;SDS011;24293;48.154;7.748;2024-03-17T10:52:41;30.97;;;11.70;;
4742;SDS011;24293;48.154;7.748;2024-03-17T10:55:08;17.80;;;10.10;;
4742;SDS011;24293;48.154;7.748;2024-03-17T10:57:38;21.03;;;10.27;;
4742;SDS011;24293;48.154;7.748;2024-03-17T11:00:08;19.00;;;10.30;;
4742;SDS011;24293;48.154;7.748;2024-03-17T11:02:35;14.50;;;8.93;;
4742;SDS011;24293;48.154;7.748;2024-03-17T11:05:02;16.10;;;9.33;;
4742;SDS011;24293;48.154;7.748;2024-03-17T11:07:29;17.70;;;10.57;;
4742;SDS011;24293;48.154;7.748;2024-03-17T11:09:56;17.60;;;9.73;;
4742;SDS011;24293;48.154;7.748;2024-03-17T11:12:44;18.40;;;10.20;;
4742;SDS011;24293;48.154;7.748;2024-03-17T11:20:55;14.47;;;9.17;;
4742;SDS011;24293;48.154;7.748;2024-03-17T11:23:25;15.40;;;9.10;;
4742;SDS011;24293;48.154;7.748;2024-03-17T11:25:52;58.87;;;26.97;;
4742;SDS011;24293;48.154;7.748;2024-03-17T11:31:01;15.13;;;7.90;;
4742;SDS011;24293;48.154;7.748;2024-03-17T11:33:46;17.90;;;8.60;;
4742;SDS011;24293;48.154;7.748;2024-03-17T11:38:58;13.57;;;8.13;;
4742;SDS011;24293;48.154;7.748;2024-03-17T11:41:38;18.90;;;10.90;;
4742;SDS011;24293;48.154;7.748;2024-03-17T11:44:15;21.57;;;13.00;;
4742;SDS011;24293;48.154;7.748;2024-03-17T11:46:45;15.77;;;8.50;;
4742;SDS011;24293;48.154;7.748;2024-03-17T11:49:16;18.40;;;9.23;;
4742;SDS011;24293;48.154;7.748;2024-03-17T11:51:44;17.30;;;9.17;;
4742;SDS011;24293;48.154;7.748;2024-03-17T11:54:11;15.10;;;8.57;;
4742;SDS011;24293;48.154;7.748;2024-03-17T11:56:39;17.77;;;9.33;;
4742;SDS011;24293;48.154;7.748;2024-03-17T11:59:05;15.27;;;8.90;;
4742;SDS011;24293;48.154;7.748;2024-03-17T12:01:34;18.60;;;8.40;;
4742;SDS011;24293;48.154;7.748;2024-03-17T12:04:01;13.80;;;8.00;;
4742;SDS011;24293;48.154;7.748;2024-03-17T12:06:30;15.77;;;8.60;;
4742;SDS011;24293;48.154;7.748;2024-03-17T12:09:07;13.57;;;8.07;;
4742;SDS011;24293;48.154;7.748;2024-03-17T12:11:37;15.43;;;8.47;;
4742;SDS011;24293;48.154;7.748;2024-03-17T12:16:54;16.63;;;8.00;;
4742;SDS011;24293;48.154;7.748;2024-03-17T12:19:21;19.47;;;8.80;;
4742;SDS011;24293;48.154;7.748;2024-03-17T12:21:48;15.70;;;9.70;;
4742;SDS011;24293;48.154;7.748;2024-03-17T12:24:16;14.50;;;8.40;;
4742;SDS011;24293;48.154;7.748;2024-03-17T12:26:43;29.73;;;9.63;;
4742;SDS011;24293;48.154;7.748;2024-03-17T12:32:05;14.83;;;8.00;;
4742;SDS011;24293;48.154;7.748;2024-03-17T12:34:33;16.47;;;9.10;;
4742;SDS011;24293;48.154;7.748;2024-03-17T12:37:00;22.87;;;11.50;;
4742;SDS011;24293;48.154;7.748;2024-03-17T12:39:26;46.03;;;22.17;;
4742;SDS011;24293;48.154;7.748;2024-03-17T12:42:02;18.50;;;9.73;;
4742;SDS011;24293;48.154;7.748;2024-03-17T12:44:28;18.63;;;9.40;;
4742;SDS011;24293;48.154;7.748;2024-03-17T12:46:55;15.03;;;8.70;;
4742;SDS011;24293;48.154;7.748;2024-03-17T12:49:21;15.17;;;8.87;;
4742;SDS011;24293;48.154;7.748;2024-03-17T12:51:51;19.33;;;9.80;;
4742;SDS011;24293;48.154;7.748;2024-03-17T12:54:19;14.87;;;9.83;;
4742;SDS011;24293;48.154;7.748;2024-03-17T12:56:45;16.70;;;8.27;;
4742;SDS011;24293;48.154;7.748;2024-03-17T12:59:39;23.17;;;10.47;;
4742;SDS011;24293;48.154;7.748;2024-03-17T13:02:23;23.30;;;8.20;;
4742;SDS011;24293;48.154;7.748;2024-03-17T13:05:05;19.10;;;8.50;;
4742;SDS011;24293;48.154;7.748;2024-03-17T13:07:33;18.20;;;8.53;;
4742;SDS011;24293;48.154;7.748;2024-03-17T13:10:00;17.83;;;7.67;;
4742;SDS011;24293;48.154;7.748;2024-03-17T13:12:27;25.00;;;8.73;;
4742;SDS011;24293;48.154;7.748;2024-03-17T13:14:54;18.27;;;8.97;;
4742;SDS011;24293;48.154;7.748;2024-03-17T13:17:20;24.70;;;8.20;;
4742;SDS011;24293;48.154;7.748;2024-03-17T13:19:47;19.23;;;10.07;;
4742;SDS011;24293;48.154;7.748;2024-03-17T13:22:14;18.73;;;9.70;;
4742;SDS011;24293;48.154;7.748;2024-03-17T13:24:42;20.93;;;9.50;;
4742;SDS011;24293;48.154;7.748;2024-03-17T13:27:09;20.10;;;9.67;;
4742;SDS011;24293;48.154;7.748;2024-03-17T13:29:36;22.47;;;10.30;;
4742;SDS011;24293;48.154;7.748;2024-03-17T13:32:04;17.90;;;9.77;;
4742;SDS011;24293;48.154;7.748;2024-03-17T13:34:31;15.60;;;8.90;;
4742;SDS011;24293;48.154;7.748;2024-03-17T13:36:58;22.50;;;10.73;;
4742;SDS011;24293;48.154;7.748;2024-03-17T13:39:28;16.90;;;9.03;;
4742;SDS011;24293;48.154;7.748;2024-03-17T13:41:58;15.20;;;8.37;;
4742;SDS011;24293;48.154;7.748;2024-03-17T13:44:28;15.73;;;9.60;;
4742;SDS011;24293;48.154;7.748;2024-03-17T13:46:54;14.90;;;7.97;;
4742;SDS011;24293;48.154;7.748;2024-03-17T13:49:21;18.17;;;8.57;;
4742;SDS011;24293;48.154;7.748;2024-03-17T13:51:47;15.30;;;7.70;;
4742;SDS011;24293;48.154;7.748;2024-03-17T13:54:14;16.90;;;8.10;;
4742;SDS011;24293;48.154;7.748;2024-03-17T13:56:40;17.87;;;8.50;;
4742;SDS011;24293;48.154;7.748;2024-03-17T13:59:08;17.23;;;8.40;;
4742;SDS011;24293;48.154;7.748;2024-03-17T14:01:34;12.53;;;7.63;;
4742;SDS011;24293;48.154;7.748;2024-03-17T14:04:02;16.00;;;7.23;;
4742;SDS011;24293;48.154;7.748;2024-03-17T14:06:29;14.97;;;6.37;;
4742;SDS011;24293;48.154;7.748;2024-03-17T14:08:55;15.40;;;7.00;;
4742;SDS011;24293;48.154;7.748;2024-03-17T14:11:22;12.70;;;7.57;;
4742;SDS011;24293;48.154;7.748;2024-03-17T14:13:48;16.10;;;7.27;;
4742;SDS011;24293;48.154;7.748;2024-03-17T14:16:17;19.00;;;8.60;;
4742;SDS011;24293;48.154;7.748;2024-03-17T14:18:43;12.30;;;6.93;;
4742;SDS011;24293;48.154;7.748;2024-03-17T14:21:10;21.00;;;7.20;;
4742;SDS011;24293;48.154;7.748;2024-03-17T14:23:36;15.73;;;7.80;;
4742;SDS011;24293;48.154;7.748;2024-03-17T14:26:03;18.43;;;7.97;;
4742;SDS011;24293;48.154;7.748;2024-03-17T14:28:31;11.10;;;5.67;;
4742;SDS011;24293;48.154;7.748;2024-03-17T14:30:58;12.57;;;5.30;;
4742;SDS011;24293;48.154;7.748;2024-03-17T14:33:25;10.40;;;4.90;;
4742;SDS011;24293;48.154;7.748;2024-03-17T14:35:55;11.73;;;5.20;;
4742;SDS011;24293;48.154;7.748;2024-03-17T14:38:22;14.23;;;5.20;;
4742;SDS011;24293;48.154;7.748;2024-03-17T14:40:50;10.10;;;5.43;;
4742;SDS011;24293;48.154;7.748;2024-03-17T14:43:17;14.20;;;5.63;;
4742;SDS011;24293;48.154;7.748;2024-03-17T14:45:43;11.60;;;4.30;;
4742;SDS011;24293;48.154;7.748;2024-03-17T14:48:10;10.40;;;3.93;;
4742;SDS011;24293;48.154;7.748;2024-03-17T14:50:39;13.60;;;4.60;;
4742;SDS011;24293;48.154;7.748;2024-03-17T14:53:06;12.40;;;5.50;;
4742;SDS011;24293;48.154;7.748;2024-03-17T14:55:32;11.43;;;6.17;;
4742;SDS011;24293;48.154;7.748;2024-03-17T14:57:59;13.20;;;6.40;;
4742;SDS011;24293;48.154;7.748;2024-03-17T15:00:27;17.00;;;5.40;;
4742;SDS011;24293;48.154;7.748;2024-03-17T15:02:56;18.63;;;7.17;;
4742;SDS011;24293;48.154;7.748;2024-03-17T15:05:22;14.53;;;6.90;;
4742;SDS011;24293;48.154;7.748;2024-03-17T15:07:52;16.53;;;7.10;;